Benton Harbor, MI

6:17 PM EDT on September 18, 2014 (GMT -0400)
Bernice Riverview | Change Station
CLOSE
Current Station
Personal Weather Station
Location: St. Joseph, MI
Elevation: 659 ft
Nearby Weather Stations

Elev 659 ft 42.10 °N, 86.47 °W | Updated 10 minutes ago

Clear
Clear
64.6 °F
Feels Like 64.6 °F
N
1.7
Wind Variable Wind from ESE

Today
High -- | Low -- °F
--% Chance of Precip.
Yesterday
High -- | Low -- °F
Precip. -- in
7:28 AM 7:49 PM
Waning Crescent, 24% visible
Pressure 30.12 in
Visibility 10.0 miles
Clouds Clear
Dew Point 51 °F
Humidity 62%
Rainfall 0.00 in
Snow Depth Not available.
UV 2 out of 12
Pollen 5.60 out of 12
Ozone Good
PM2.5 Good
Flu Activity Not available.
METAR KBEH 182153Z AUTO VRB04KT 10SM CLR 18/10 A3011 RMK AO2 SLP198 T01830100

More Conditions Fewer Conditions

Pressure 30.12 in
Visibility 10.0 miles
Clouds Clear
Dew Point 51 °F
Humidity 62%
Rainfall 0.00 in
Snow Depth Not available.
UV 2 out of 12
Pollen 5.60 out of 12
Ozone Good
PM2.5 Good
Flu Activity Not available.
METAR KBEH 182153Z AUTO VRB04KT 10SM CLR 18/10 A3011 RMK AO2 SLP198 T01830100

More Conditions Fewer Conditions

10-Day Weather Forecast

Almanac

Astronomy

Sep. 18, 2014 Rise Set
Actual Time 7:28 AM EDT 7:49 PM EDT
Civil Twilight 7:00 AM EDT 8:17 PM EDT
Nautical Twilight 6:27 AM EDT 8:50 PM EDT
Astronomical Twilight 5:54 AM EDT 9:24 PM EDT
Moon 2:16 AM EDT 4:44 PM EDT
Length of Visible Light 13h 17m
Length of Day
12h 21m
Tomorrow will be 2m 49s shorter.
Waning Crescent, 24% of the Moon is Illuminated
Today
Waning Crescent
Sep 24
New
Oct 1
First Quarter
Oct 8
Full
Oct 15
Last Quarter

Today's Extremes

State Highs State Lows

Community

WunderPhotos

Upload Photos

1,754,457 photos uploaded!

WunderBlogs® & News

Nearby

Air Quality

  Air Quality AQ Index Pollutant
Yesterday Good
OZONE
Yesterday Good
PM2.5
Current Good
OZONE
Current Good
PM2.5
Thursday Moderate
PM2.5
Thursday Good
OZONE
Friday Moderate
PM2.5
Friday Good
OZONE
Saturday Good
OZONE
Saturday Good
PM2.5
Sunday Good
OZONE
Sunday Good
PM2.5
Monday Good
OZONE
Monday Good
PM2.5

Snow Depth

Station Depth Elevation
No new snow has been reported.

Earthquake Activity

City Distance Mag. Time & Date
No recent earthquake activity has been reported nearby.
Minimum magnitude displayed is 2.5.

Coastal Water Temperatures

Place Temperature
Holland, MI 62.1 °F

Nearby Weather Stations